Quailtown, Indiana
Current Conditions -  °F | °C
As of 6:59 PM on Sunday 23 Nov 2014 (Local Time) from KBAK Reporting Station
Light Rain Light Rain  
Wind Chill: 52°   Ceiling: 1200
Heat Index: 52°   Visibility: 7mi
Dew Point: 52°   Wind: 9mph
Humidity: 100%   Direction: 130°SE
Pressure: 29.4"   Gusts: NA
Location:  39.1743°N, 85.6083°W
Report Text: KBAK 232359Z 13008KT 7SM -RA SCT007 OVC012 11/11 A2940
Loading
Personal Weather Stations






























Interactive Weather Map New forecast layout! Learn more

10-Day Weather Forecast

Advertisements
Track Severe Weather on mobile